createdAt,value
2022-08-24T00:02:01.503Z,101818.13
2022-08-24T00:04:28.434Z,101818.34
2022-08-24T00:06:58.725Z,101820.09
2022-08-24T00:09:25.210Z,101816.72
2022-08-24T00:11:51.732Z,101808.41
2022-08-24T00:14:18.686Z,101814.22
2022-08-24T00:16:45.694Z,101818.28
2022-08-24T00:19:12.668Z,101812.59
2022-08-24T00:21:39.267Z,101806.59
2022-08-24T00:24:06.396Z,101801.59
2022-08-24T00:26:32.916Z,101807.88
2022-08-24T00:29:01.393Z,101809.97
2022-08-24T00:31:30.769Z,101806.44
2022-08-24T00:33:57.304Z,101807.72
2022-08-24T00:36:24.766Z,101808.78
2022-08-24T00:38:51.464Z,101810.81
2022-08-24T00:41:18.227Z,101810.41
2022-08-24T00:43:59.859Z,101811.69
2022-08-24T00:46:43.267Z,101811.09
2022-08-24T00:49:38.543Z,101820.47
2022-08-24T00:52:06.777Z,101820.94
2022-08-24T00:54:42.811Z,101826.53
2022-08-24T00:57:14.345Z,101827.44
2022-08-24T00:59:49.170Z,101822.50
2022-08-24T01:02:24.760Z,101820.50
2022-08-24T01:04:56.058Z,101827.09
2022-08-24T01:07:25.066Z,101837.44
2022-08-24T01:09:53.018Z,101836.53
2022-08-24T01:12:19.878Z,101836.94
2022-08-24T01:14:46.747Z,101834.31
2022-08-24T01:17:36.217Z,101840.59
2022-08-24T01:20:07.220Z,101843.47
2022-08-24T01:22:50.201Z,101851.50
2022-08-24T01:25:17.212Z,101849.59
2022-08-24T01:27:44.233Z,101845.44
2022-08-24T01:30:13.861Z,101842.03
2022-08-24T01:32:41.527Z,101852.78
2022-08-24T01:35:08.943Z,101851.16
2022-08-24T01:37:35.648Z,101854.16
2022-08-24T01:40:06.538Z,101857.91
2022-08-24T01:42:34.882Z,101846.91
2022-08-24T01:45:01.968Z,101853.72
2022-08-24T01:47:29.051Z,101848.84
2022-08-24T01:49:55.665Z,101855.47
2022-08-24T01:52:25.305Z,101861.00
2022-08-24T01:54:52.438Z,101862.41
2022-08-24T01:57:19.872Z,101863.22
2022-08-24T01:59:49.639Z,101869.06
2022-08-24T02:02:19.773Z,101866.91
2022-08-24T02:04:46.488Z,101871.94
2022-08-24T02:07:13.963Z,101873.91
2022-08-24T02:09:40.461Z,101870.00
2022-08-24T02:12:07.488Z,101875.81
2022-08-24T02:14:34.527Z,101877.00
2022-08-24T02:17:04.458Z,101875.31
2022-08-24T02:19:31.096Z,101869.16
2022-08-24T02:21:57.592Z,101878.13
2022-08-24T02:24:24.100Z,101865.50
2022-08-24T02:26:50.742Z,101871.31
2022-08-24T02:29:17.635Z,101873.84
2022-08-24T02:31:44.130Z,101870.34
2022-08-24T02:34:10.792Z,101862.19
2022-08-24T02:36:38.359Z,101857.19
2022-08-24T02:39:06.090Z,101859.50
2022-08-24T02:41:32.613Z,101861.59
2022-08-24T02:43:59.993Z,101856.66
2022-08-24T02:46:28.500Z,101855.41
2022-08-24T02:49:03.605Z,101859.34
2022-08-24T02:51:45.002Z,101856.63
2022-08-24T02:54:13.621Z,101851.47
2022-08-24T02:56:40.161Z,101853.13
2022-08-24T02:59:06.880Z,101848.38
2022-08-24T03:01:33.451Z,101849.22
2022-08-24T03:03:59.988Z,101848.38
2022-08-24T03:06:26.501Z,101846.72
2022-08-24T03:08:56.170Z,101836.19
2022-08-24T03:11:27.692Z,101844.63
2022-08-24T03:13:59.116Z,101845.88
2022-08-24T03:16:26.892Z,101846.69
2022-08-24T03:18:53.495Z,101845.47
2022-08-24T03:21:20.873Z,101843.44
2022-08-24T03:23:47.644Z,101849.84
2022-08-24T03:26:14.744Z,101845.69
2022-08-24T03:28:41.820Z,101847.38
2022-08-24T03:31:11.286Z,101859.75
2022-08-24T03:33:38.056Z,101857.28
2022-08-24T03:36:04.567Z,101842.19
2022-08-24T03:38:31.055Z,101850.06
2022-08-24T03:40:57.667Z,101839.13
2022-08-24T03:43:42.635Z,101838.50
2022-08-24T03:46:11.916Z,101842.38
2022-08-24T03:48:44.232Z,101841.78
2022-08-24T03:51:12.571Z,101838.50
2022-08-24T03:53:42.394Z,101848.00
2022-08-24T03:56:10.958Z,101852.13
2022-08-24T03:58:39.514Z,101844.69
2022-08-24T04:01:06.233Z,101840.75
2022-08-24T04:03:36.019Z,101838.91
2022-08-24T04:06:02.604Z,101843.66
2022-08-24T04:08:30.076Z,101842.00
2022-08-24T04:10:58.086Z,101844.91
2022-08-24T04:13:25.144Z,101843.47
2022-08-24T04:15:52.931Z,101836.41
2022-08-24T04:18:20.179Z,101843.22
2022-08-24T04:20:46.686Z,101843.44
2022-08-24T04:23:13.417Z,101842.22
2022-08-24T04:25:46.495Z,101850.47
2022-08-24T04:28:15.088Z,101851.09
2022-08-24T04:30:42.981Z,101856.66
2022-08-24T04:33:11.186Z,101855.22
2022-08-24T04:35:42.904Z,101852.34
2022-08-24T04:38:09.892Z,101857.94
2022-08-24T04:40:39.486Z,101855.47
2022-08-24T04:43:06.146Z,101854.00
2022-08-24T04:45:34.158Z,101852.34
2022-08-24T04:48:00.685Z,101856.06
2022-08-24T04:50:27.264Z,101848.44
2022-08-24T04:52:53.755Z,101846.78
2022-08-24T04:55:20.263Z,101853.78
2022-08-24T04:57:46.788Z,101849.25
2022-08-24T05:00:13.612Z,101856.50
2022-08-24T05:02:44.691Z,101856.69
2022-08-24T05:05:11.881Z,101845.50
2022-08-24T05:07:38.800Z,101848.81
2022-08-24T05:10:07.428Z,101852.97
2022-08-24T05:12:35.438Z,101857.09
2022-08-24T05:15:02.034Z,101855.84
2022-08-24T05:17:28.562Z,101852.13
2022-08-24T05:19:55.127Z,101846.72
2022-08-24T05:22:22.271Z,101852.97
2022-08-24T05:24:48.781Z,101860.00
2022-08-24T05:27:15.925Z,101865.59
2022-08-24T05:29:45.965Z,101856.66
2022-08-24T05:32:12.540Z,101873.41
2022-08-24T05:34:39.223Z,101881.84
2022-08-24T05:37:05.757Z,101881.28
2022-08-24T05:39:32.739Z,101888.19
2022-08-24T05:42:00.876Z,101887.56
2022-08-24T05:44:31.061Z,101881.47
2022-08-24T05:46:58.720Z,101884.50
2022-08-24T05:49:26.130Z,101887.59
2022-08-24T05:51:52.891Z,101881.19
2022-08-24T05:54:19.922Z,101895.13
2022-08-24T05:56:46.585Z,101894.72
2022-08-24T05:59:13.967Z,101894.19
2022-08-24T06:01:45.150Z,101889.53
2022-08-24T06:04:12.755Z,101894.63
2022-08-24T06:06:39.273Z,101902.69
2022-08-24T06:09:06.013Z,101912.09
2022-08-24T06:11:37.836Z,101911.63
2022-08-24T06:14:09.426Z,101912.97
2022-08-24T06:16:40.907Z,101912.22
2022-08-24T06:19:09.100Z,101913.78
2022-08-24T06:21:35.667Z,101922.47
2022-08-24T06:24:02.169Z,101918.97
2022-08-24T06:26:49.918Z,101931.53
2022-08-24T06:29:17.897Z,101941.91
2022-08-24T06:31:46.469Z,101938.38
2022-08-24T06:34:14.615Z,101939.91
2022-08-24T06:36:41.438Z,101945.19
2022-08-24T06:39:10.004Z,101951.06
2022-08-24T06:41:38.227Z,101946.84
2022-08-24T06:44:05.884Z,101950.97
2022-08-24T06:46:33.114Z,101951.22
2022-08-24T06:48:59.953Z,101954.72
2022-08-24T06:51:26.440Z,101961.78
2022-08-24T06:53:55.670Z,101957.56
2022-08-24T06:56:22.484Z,101952.97
2022-08-24T06:58:48.978Z,101951.31
2022-08-24T07:01:18.225Z,101953.66
2022-08-24T07:03:45.019Z,101957.44
2022-08-24T07:06:14.095Z,101955.66
2022-08-24T07:08:42.233Z,101968.03
2022-08-24T07:11:09.702Z,101962.50
2022-08-24T07:13:36.238Z,101958.91
2022-08-24T07:16:03.443Z,101961.16
2022-08-24T07:18:30.018Z,101956.53
2022-08-24T07:20:56.520Z,101954.22
2022-08-24T07:23:23.185Z,101965.13
2022-08-24T07:28:47.671Z,101964.53
2022-08-24T07:31:14.969Z,101963.56
2022-08-24T07:33:41.800Z,101965.63
2022-08-24T07:36:08.447Z,101962.72
2022-08-24T07:38:35.136Z,101963.22
2022-08-24T07:41:33.249Z,101968.97
2022-08-24T07:43:48.694Z,101966.28
2022-08-24T07:46:15.351Z,101967.47
2022-08-24T07:48:41.885Z,101976.72
2022-08-24T07:51:09.574Z,101972.25
2022-08-24T07:53:52.626Z,101987.66
2022-08-24T07:56:20.330Z,101980.09
2022-08-24T07:58:47.391Z,101983.44
2022-08-24T08:01:13.947Z,101979.94
2022-08-24T08:03:41.634Z,101996.94
2022-08-24T08:06:16.155Z,101991.56
2022-08-24T08:08:43.050Z,101985.22
2022-08-24T08:11:10.247Z,101978.88
2022-08-24T08:13:37.189Z,101997.84
2022-08-24T08:16:07.898Z,101975.53
2022-08-24T08:18:35.229Z,101992.75
2022-08-24T08:21:26.207Z,101988.63
2022-08-24T08:24:11.331Z,101979.94
2022-08-24T08:26:38.664Z,101984.03
2022-08-24T08:29:05.225Z,102000.41
2022-08-24T08:31:31.773Z,102006.56
2022-08-24T08:34:01.009Z,101989.09
2022-08-24T08:36:27.563Z,102003.72
2022-08-24T08:38:54.188Z,102012.88
2022-08-24T08:41:58.268Z,101997.97
2022-08-24T08:44:49.252Z,101995.63
2022-08-24T08:47:44.909Z,102001.06
2022-08-24T08:50:48.635Z,102005.53
2022-08-24T08:53:39.965Z,101989.53
2022-08-24T08:56:30.256Z,101999.81
2022-08-24T08:59:50.116Z,101992.91
2022-08-24T09:02:43.816Z,101985.16
2022-08-24T09:05:32.163Z,101992.41
2022-08-24T09:08:19.855Z,101988.34
2022-08-24T09:11:06.037Z,101988.44
2022-08-24T09:13:48.526Z,101987.06
2022-08-24T09:16:29.354Z,101981.66
2022-08-24T09:19:10.735Z,101966.22
2022-08-24T09:22:01.181Z,101978.25
2022-08-24T09:24:53.256Z,101969.25
2022-08-24T09:27:32.581Z,101966.25
2022-08-24T09:30:10.283Z,101974.59
2022-08-24T09:33:10.429Z,101976.59
2022-08-24T09:35:58.816Z,101968.16
2022-08-24T09:39:00.022Z,101969.59
2022-08-24T09:42:07.313Z,101958.63
2022-08-24T09:44:55.319Z,101969.25
2022-08-24T09:47:45.598Z,101964.75
2022-08-24T09:50:21.158Z,101960.59
2022-08-24T09:53:26.181Z,101956.81
2022-08-24T09:56:02.209Z,101957.19
2022-08-24T09:58:41.037Z,101945.94
2022-08-24T10:01:25.900Z,101957.72
2022-08-24T10:04:14.884Z,101955.91
2022-08-24T10:07:06.961Z,101952.41
2022-08-24T10:09:54.207Z,101954.78
2022-08-24T10:12:56.221Z,101951.50
2022-08-24T10:15:38.589Z,101925.28
2022-08-24T10:18:21.702Z,101937.19
2022-08-24T10:21:19.318Z,101954.09
2022-08-24T10:24:13.335Z,101952.13
2022-08-24T10:26:47.259Z,101940.91
2022-08-24T10:29:28.403Z,101916.09
2022-08-24T10:32:26.098Z,101908.69
2022-08-24T10:35:05.843Z,101920.19
2022-08-24T10:37:44.291Z,101920.94
2022-08-24T10:40:32.199Z,101919.81
2022-08-24T10:43:35.825Z,101933.97
2022-08-24T10:46:36.399Z,101889.31
2022-08-24T10:49:22.207Z,101903.50
2022-08-24T10:52:06.987Z,101906.34
2022-08-24T10:54:34.700Z,101921.16
2022-08-24T10:57:12.299Z,101922.41
2022-08-24T11:00:22.894Z,101895.31
2022-08-24T11:02:50.254Z,101872.34
2022-08-24T11:05:29.546Z,101869.56
2022-08-24T11:08:05.240Z,101869.91
2022-08-24T11:10:39.918Z,101892.88
2022-08-24T11:13:17.887Z,101882.38
2022-08-24T11:15:49.537Z,101878.50
2022-08-24T11:18:16.957Z,101896.34
2022-08-24T11:20:46.914Z,101878.72
2022-08-24T11:23:20.451Z,101871.50
2022-08-24T11:25:59.560Z,101875.94
2022-08-24T11:28:33.690Z,101878.34
2022-08-24T11:31:00.712Z,101879.47
2022-08-24T11:33:44.719Z,101879.53
2022-08-24T11:36:21.123Z,101862.59
2022-08-24T11:38:47.983Z,101892.75
2022-08-24T11:41:23.286Z,101837.13
2022-08-24T11:44:17.604Z,101839.06
2022-08-24T11:47:04.196Z,101846.56
2022-08-24T11:49:48.137Z,101845.91
2022-08-24T11:52:59.899Z,101852.81
2022-08-24T11:55:41.678Z,101858.69
2022-08-24T11:58:47.952Z,101850.59
2022-08-24T12:01:27.723Z,101860.22
2022-08-24T12:04:14.151Z,101866.09
2022-08-24T12:07:02.532Z,101845.66
2022-08-24T12:10:08.524Z,101849.63
2022-08-24T12:12:53.138Z,101855.22
2022-08-24T12:16:00.540Z,101855.97
2022-08-24T12:18:48.228Z,101832.50
2022-08-24T12:21:22.070Z,101844.84
2022-08-24T12:23:57.397Z,101868.75
2022-08-24T12:26:44.516Z,101839.09
2022-08-24T12:29:28.852Z,101844.66
2022-08-24T12:32:02.258Z,101853.78
2022-08-24T12:34:57.948Z,101849.06
2022-08-24T12:37:32.354Z,101842.38
2022-08-24T12:40:07.302Z,101855.53
2022-08-24T12:42:41.136Z,101862.34
2022-08-24T12:45:14.118Z,101860.31
2022-08-24T12:48:13.066Z,101852.19
2022-08-24T12:50:51.722Z,101841.41
2022-08-24T12:53:33.185Z,101868.69
2022-08-24T12:56:15.377Z,101867.25
2022-08-24T12:58:59.111Z,101866.31
2022-08-24T13:01:29.781Z,101851.22
2022-08-24T13:04:38.499Z,101844.63
2022-08-24T13:07:11.544Z,101837.84
2022-08-24T13:09:58.237Z,101869.38
2022-08-24T13:12:30.488Z,101853.00
2022-08-24T13:15:22.734Z,101862.72
2022-08-24T13:17:51.610Z,101886.16
2022-08-24T13:20:27.343Z,101907.53
2022-08-24T13:23:04.513Z,101916.59
2022-08-24T13:25:54.653Z,101924.50
2022-08-24T13:28:21.166Z,101920.78
2022-08-24T13:30:56.385Z,101936.50
2022-08-24T13:33:41.222Z,101940.38
2022-08-24T13:36:28.694Z,101953.22
2022-08-24T13:39:07.072Z,101940.44
2022-08-24T13:42:11.961Z,101912.97
2022-08-24T13:45:35.418Z,101954.84
2022-08-24T13:48:07.529Z,101925.94
2022-08-24T13:50:40.157Z,101922.56
2022-08-24T13:53:32.711Z,101934.75
2022-08-24T13:56:33.221Z,101949.28
2022-08-24T13:59:06.781Z,101963.94
2022-08-24T14:01:59.517Z,101930.97
2022-08-24T14:04:26.139Z,101932.88
2022-08-24T14:07:17.956Z,101940.72
2022-08-24T14:10:02.510Z,101952.13
2022-08-24T14:12:34.948Z,101932.41
2022-08-24T14:15:30.133Z,101945.84
2022-08-24T14:18:14.678Z,101972.28
2022-08-24T14:21:09.057Z,101935.97
2022-08-24T14:24:00.467Z,101941.31
2022-08-24T14:26:40.654Z,101957.66
2022-08-24T14:29:19.239Z,101956.72
2022-08-24T14:32:00.066Z,101928.03
2022-08-24T14:34:48.654Z,101946.56
2022-08-24T14:37:16.355Z,101952.25
2022-08-24T14:39:51.558Z,101946.09
2022-08-24T14:42:21.363Z,101936.69
2022-08-24T14:44:51.960Z,101947.91
2022-08-24T14:47:38.315Z,101934.50
2022-08-24T14:50:17.263Z,101930.09
2022-08-24T14:53:01.033Z,101927.97
2022-08-24T14:55:56.945Z,101944.41
2022-08-24T14:58:43.363Z,101949.06
2022-08-24T15:01:09.781Z,101939.47
2022-08-24T15:03:51.956Z,101954.56
2022-08-24T15:06:27.221Z,101977.41
2022-08-24T15:09:25.172Z,101969.97
2022-08-24T15:11:55.320Z,101958.22
2022-08-24T15:14:33.673Z,101956.72
2022-08-24T15:17:10.836Z,101950.19
2022-08-24T15:20:01.713Z,101944.47
2022-08-24T15:22:44.012Z,101947.22
2022-08-24T15:25:15.818Z,101954.53
2022-08-24T15:27:48.598Z,101959.72
2022-08-24T15:30:23.968Z,101947.66
2022-08-24T15:32:55.423Z,101943.47
2022-08-24T15:35:25.791Z,101960.59
2022-08-24T15:37:52.795Z,101948.22
2022-08-24T15:40:29.588Z,101967.38
2022-08-24T15:43:04.106Z,101953.44
2022-08-24T15:45:31.708Z,101960.56
2022-08-24T15:47:59.745Z,101954.81
2022-08-24T15:50:29.292Z,101968.78
2022-08-24T15:53:01.704Z,101973.44
2022-08-24T15:55:28.116Z,101968.47
2022-08-24T15:57:56.164Z,101970.16
2022-08-24T16:00:44.731Z,101969.00
2022-08-24T16:03:27.563Z,101979.13
2022-08-24T16:05:56.371Z,101984.28
2022-08-24T16:08:23.336Z,101973.66
2022-08-24T16:10:55.562Z,101982.69
2022-08-24T16:13:32.107Z,101976.91
2022-08-24T16:16:12.063Z,101981.50
2022-08-24T16:18:41.375Z,101992.19
2022-08-24T16:21:24.884Z,101981.28
2022-08-24T16:23:57.224Z,101987.50
2022-08-24T16:26:28.828Z,101985.28
2022-08-24T16:28:56.411Z,101988.63
2022-08-24T16:31:46.860Z,101989.72
2022-08-24T16:34:29.100Z,101983.59
2022-08-24T16:36:56.107Z,101994.75
2022-08-24T16:39:23.032Z,101992.47
2022-08-24T16:41:51.915Z,101996.53
2022-08-24T16:44:18.495Z,102000.91
2022-08-24T16:46:48.035Z,101996.13
2022-08-24T16:49:14.852Z,101998.47
2022-08-24T16:51:45.341Z,102000.50
2022-08-24T16:54:12.030Z,102006.47
2022-08-24T16:56:38.542Z,102015.44
2022-08-24T16:59:06.839Z,102000.81
2022-08-24T17:01:33.408Z,102007.84
2022-08-24T17:03:59.974Z,101999.88
2022-08-24T17:06:26.482Z,102010.22
2022-08-24T17:08:53.578Z,102016.16
2022-08-24T17:11:20.153Z,102007.06
2022-08-24T17:13:50.913Z,102015.47
2022-08-24T17:16:18.942Z,102009.56
2022-08-24T17:18:45.606Z,102008.16
2022-08-24T17:21:12.129Z,102013.75
2022-08-24T17:23:39.323Z,102008.72
2022-08-24T17:26:19.243Z,102005.47
2022-08-24T17:28:47.577Z,102007.34
2022-08-24T17:31:14.407Z,102014.25
2022-08-24T17:33:42.099Z,102014.75
2022-08-24T17:36:15.239Z,102016.09
2022-08-24T17:38:51.699Z,102026.34
2022-08-24T17:41:21.283Z,102013.75
2022-08-24T17:43:47.791Z,102022.25
2022-08-24T17:46:14.847Z,102018.06
2022-08-24T17:48:44.128Z,102018.00
2022-08-24T17:51:11.207Z,102016.75
2022-08-24T17:53:37.708Z,102010.78
2022-08-24T17:56:06.515Z,102014.91
2022-08-24T17:58:53.147Z,102007.09
2022-08-24T18:01:19.867Z,102007.22
2022-08-24T18:03:46.633Z,102014.03
2022-08-24T18:06:13.585Z,102013.91
2022-08-24T18:08:40.156Z,102007.69
2022-08-24T18:11:06.664Z,102012.56
2022-08-24T18:13:33.656Z,102003.59
2022-08-24T18:16:00.323Z,102012.97
2022-08-24T18:18:26.854Z,102017.97
2022-08-24T18:20:53.815Z,102022.38
2022-08-24T18:23:21.244Z,102011.75
2022-08-24T18:25:51.494Z,102021.63
2022-08-24T18:28:21.935Z,102024.28
2022-08-24T18:30:50.402Z,102019.94
2022-08-24T18:33:17.429Z,102029.50
2022-08-24T18:35:45.593Z,102036.09
2022-08-24T18:38:12.462Z,102039.53
2022-08-24T18:40:40.623Z,102044.56
2022-08-24T18:43:19.590Z,102048.00
2022-08-24T18:45:46.214Z,102043.38
2022-08-24T18:48:12.767Z,102051.16
2022-08-24T18:50:42.152Z,102044.56
2022-08-24T18:53:09.164Z,102046.06
2022-08-24T18:55:37.630Z,102045.97
2022-08-24T18:58:05.241Z,102041.47
2022-08-24T19:00:31.850Z,102036.88
2022-08-24T19:03:02.122Z,102044.97
2022-08-24T19:05:28.960Z,102047.31
2022-08-24T19:07:55.558Z,102046.94
2022-08-24T19:10:25.100Z,102051.50
2022-08-24T19:13:02.053Z,102050.91
2022-08-24T19:15:38.946Z,102049.03
2022-08-24T19:18:11.050Z,102045.00
2022-08-24T19:20:47.993Z,102040.31
2022-08-24T19:23:28.027Z,102044.09
2022-08-24T19:25:54.832Z,102045.28
2022-08-24T19:28:22.530Z,102036.09
2022-08-24T19:30:49.552Z,102042.19
2022-08-24T19:33:21.056Z,102043.38
2022-08-24T19:36:07.455Z,102045.19
2022-08-24T19:38:34.427Z,102051.22
2022-08-24T19:41:02.500Z,102047.00
2022-08-24T19:44:00.256Z,102051.88
2022-08-24T19:46:27.451Z,102054.66
2022-08-24T19:48:53.990Z,102058.78
2022-08-24T19:51:20.490Z,102055.47
2022-08-24T19:53:47.080Z,102056.22
2022-08-24T19:56:13.599Z,102060.66
2022-08-24T19:58:47.111Z,102060.28
2022-08-24T20:01:18.464Z,102060.88
2022-08-24T20:03:45.058Z,102056.09
2022-08-24T20:06:12.526Z,102055.47
2022-08-24T20:08:40.843Z,102053.44
2022-08-24T20:11:08.227Z,102060.59
2022-08-24T20:13:35.094Z,102059.16
2022-08-24T20:16:05.384Z,102058.03
2022-08-24T20:18:34.729Z,102056.91
2022-08-24T20:21:01.999Z,102054.97
2022-08-24T20:23:29.364Z,102056.91
2022-08-24T20:25:57.661Z,102059.63
2022-08-24T20:28:29.753Z,102055.78
2022-08-24T20:30:57.505Z,102060.72
2022-08-24T20:33:24.858Z,102061.19
2022-08-24T20:35:51.460Z,102067.56
2022-08-24T20:38:19.780Z,102074.34
2022-08-24T20:40:46.855Z,102080.31
2022-08-24T20:43:13.978Z,102081.00
2022-08-24T20:45:41.613Z,102078.78
2022-08-24T20:48:11.901Z,102083.06
2022-08-24T20:50:38.997Z,102084.22
2022-08-24T20:53:06.221Z,102091.50
2022-08-24T20:55:32.850Z,102093.81
2022-08-24T20:58:01.526Z,102087.69
2022-08-24T21:00:28.172Z,102091.81
2022-08-24T21:02:55.047Z,102092.81
2022-08-24T21:05:22.115Z,102087.47
2022-08-24T21:07:49.756Z,102088.00
2022-08-24T21:10:21.324Z,102088.06
2022-08-24T21:12:51.822Z,102088.22
2022-08-24T21:15:18.567Z,102092.13
2022-08-24T21:17:45.376Z,102097.53
2022-08-24T21:20:13.653Z,102089.75
2022-08-24T21:22:40.548Z,102088.22
2022-08-24T21:25:09.309Z,102080.09
2022-08-24T21:27:38.367Z,102079.34
2022-08-24T21:30:06.725Z,102086.91
2022-08-24T21:32:51.958Z,102081.97
2022-08-24T21:35:18.570Z,102081.09
2022-08-24T21:37:47.563Z,102085.69
2022-08-24T21:40:14.388Z,102080.19
2022-08-24T21:42:40.914Z,102081.84
2022-08-24T21:45:07.896Z,102086.19
2022-08-24T21:47:34.454Z,102079.34
2022-08-24T21:50:00.952Z,102079.00
2022-08-24T21:52:27.493Z,102083.94
2022-08-24T21:54:56.274Z,102086.00
2022-08-24T21:57:22.981Z,102086.75
2022-08-24T21:59:49.973Z,102085.16
2022-08-24T22:02:16.968Z,102082.22
2022-08-24T22:04:47.574Z,102088.06
2022-08-24T22:07:23.851Z,102085.16
2022-08-24T22:09:50.380Z,102082.31
2022-08-24T22:12:16.900Z,102086.13
2022-08-24T22:14:43.484Z,102080.09
2022-08-24T22:17:10.018Z,102084.69
2022-08-24T22:19:36.534Z,102072.47
2022-08-24T22:22:03.108Z,102074.56
2022-08-24T22:24:29.665Z,102080.53
2022-08-24T22:26:56.247Z,102076.19
2022-08-24T22:29:22.744Z,102078.06
2022-08-24T22:31:49.332Z,102073.19
2022-08-24T22:34:21.714Z,102068.88
2022-08-24T22:36:48.740Z,102068.47
2022-08-24T22:39:15.983Z,102069.50
2022-08-24T22:41:43.859Z,102076.34
2022-08-24T22:44:19.847Z,102072.84
2022-08-24T22:46:57.927Z,102061.81
2022-08-24T22:49:30.327Z,102057.88
2022-08-24T22:51:56.828Z,102060.97
2022-08-24T22:54:23.765Z,102054.53
2022-08-24T22:56:52.517Z,102056.66
2022-08-24T22:59:22.127Z,102061.44
2022-08-24T23:01:51.051Z,102073.59
2022-08-24T23:04:21.215Z,102058.47
2022-08-24T23:06:47.881Z,102069.88
2022-08-24T23:09:15.219Z,102061.44
2022-08-24T23:11:42.065Z,102065.19
2022-08-24T23:14:10.144Z,102061.63
2022-08-24T23:16:38.793Z,102059.75
2022-08-24T23:19:25.857Z,102056.44
2022-08-24T23:21:53.820Z,102059.31
2022-08-24T23:24:20.412Z,102060.38
2022-08-24T23:26:46.925Z,102057.31
2022-08-24T23:29:14.153Z,102060.00
2022-08-24T23:31:41.615Z,102055.19
2022-08-24T23:34:08.236Z,102052.72
2022-08-24T23:36:36.420Z,102046.25
2022-08-24T23:39:04.251Z,102052.47
2022-08-24T23:41:33.156Z,102047.28
2022-08-24T23:44:01.963Z,102052.09
2022-08-24T23:46:28.775Z,102044.41
2022-08-24T23:48:56.733Z,102052.28
2022-08-24T23:51:25.428Z,102043.22
2022-08-24T23:53:53.288Z,102044.84
2022-08-24T23:56:22.548Z,102040.91
2022-08-24T23:58:49.986Z,102038.63
